Time;durP1;ratioP1;P1;durP2;ratioP2;P2;SDS_P1;SDS_P2;PMS_P1;PMS_P2;Temp;Humidity;BMP_temperature;BMP_pressure;BME280_temperature;BME280_humidity;BME280_pressure;Samples;Min_cycle;Max_cycle;Signal;HPM_P1;HPM_P2
2021/06/04 00:01:50;;;;;;;5.53;3.78;;;;;;;15.71;47.71;101609.16;5105283;28;20042;-69
2021/06/04 00:04:16;;;;;;;5.60;3.58;;;;;;;15.63;47.91;101597.88;5106669;28;20027;-69
2021/06/04 00:06:42;;;;;;;5.93;3.55;;;;;;;15.58;47.90;101597.94;5110204;28;20072;-69
2021/06/04 00:09:10;;;;;;;5.13;3.45;;;;;;;15.55;47.89;101597.97;5106909;28;20052;-69
2021/06/04 00:11:42;;;;;;;5.32;3.20;;;;;;;15.70;47.25;101604.81;5106663;28;20039;-69
2021/06/04 00:14:15;;;;;;;4.35;3.25;;;;;;;15.59;47.32;101589.22;5106985;28;20084;-69
2021/06/04 00:16:49;;;;;;;4.70;3.45;;;;;;;15.64;46.99;101597.03;5107016;28;20047;-69
2021/06/04 00:19:20;;;;;;;3.70;2.67;;;;;;;15.71;46.57;101594.31;5106725;28;20040;-68
2021/06/04 00:21:50;;;;;;;5.18;3.45;;;;;;;15.73;46.36;101599.53;5106453;28;20020;-69
2021/06/04 00:24:16;;;;;;;5.15;2.97;;;;;;;15.64;46.55;101589.16;5106763;28;20020;-68
2021/06/04 00:26:44;;;;;;;4.00;2.90;;;;;;;15.63;46.21;101587.41;5106786;28;20085;-68
2021/06/04 00:29:10;;;;;;;5.22;3.42;;;;;;;15.65;46.03;101594.38;5106539;28;20384;-68
2021/06/04 00:31:36;;;;;;;5.90;3.30;;;;;;;15.69;45.76;101588.22;5106529;28;20088;-68
2021/06/04 00:34:04;;;;;;;6.47;3.40;;;;;;;15.63;45.53;101583.06;5106346;28;20027;-69
2021/06/04 00:36:30;;;;;;;5.60;3.40;;;;;;;15.62;45.56;101591.81;5106036;28;20049;-70
2021/06/04 00:38:58;;;;;;;5.13;3.10;;;;;;;15.61;45.52;101590.94;5106437;28;20213;-69
2021/06/04 00:41:28;;;;;;;7.65;3.35;;;;;;;15.49;45.63;101572.75;5106210;28;20023;-68
2021/06/04 00:43:54;;;;;;;7.25;3.28;;;;;;;15.58;45.75;101585.72;5106126;28;20020;-68
2021/06/04 00:46:20;;;;;;;4.80;2.50;;;;;;;15.58;45.77;101584.84;5106165;28;20074;-67
2021/06/04 00:48:46;;;;;;;4.78;3.10;;;;;;;15.53;45.72;101584.91;5105944;28;20111;-69
2021/06/04 00:51:44;;;;;;;5.63;2.97;;;;;;;15.41;46.02;101577.19;5105832;28;20169;-68
2021/06/04 00:54:10;;;;;;;7.22;3.30;;;;;;;15.50;45.81;101584.94;5077953;28;20024;-69
2021/06/04 00:56:38;;;;;;;5.07;2.97;;;;;;;15.49;45.54;101578.81;5104217;28;20127;-69
2021/06/04 00:59:06;;;;;;;5.60;2.78;;;;;;;15.56;45.34;101571.78;5106057;28;20028;-69
2021/06/04 01:01:34;;;;;;;4.85;2.63;;;;;;;15.41;45.87;101574.56;5104529;28;20028;-69
2021/06/04 01:04:12;;;;;;;6.32;3.10;;;;;;;15.46;45.45;101576.22;5105506;28;20474;-69
2021/06/04 01:06:43;;;;;;;5.95;2.90;;;;;;;15.33;45.62;101559.81;5105661;28;20123;-69
2021/06/04 01:09:23;;;;;;;4.90;3.28;;;;;;;15.22;45.73;101561.66;5105878;28;20020;-69
2021/06/04 01:12:13;;;;;;;5.97;3.47;;;;;;;15.18;45.79;101568.66;5105335;28;20043;-69
2021/06/04 01:15:06;;;;;;;4.35;2.60;;;;;;;15.26;45.48;101573.81;5105741;28;20059;-68
2021/06/04 01:17:52;;;;;;;5.45;3.15;;;;;;;15.21;45.37;101576.47;5105278;28;20044;-68
2021/06/04 01:20:25;;;;;;;4.90;3.22;;;;;;;15.22;45.06;101578.22;5105681;28;20032;-69
2021/06/04 01:22:50;;;;;;;6.90;2.88;;;;;;;15.22;45.13;101577.34;5105384;28;20088;-69
2021/06/04 01:25:50;;;;;;;8.52;3.25;;;;;;;15.20;45.18;101581.72;5105541;28;20024;-69
2021/06/04 01:28:22;;;;;;;5.60;2.72;;;;;;;15.16;45.20;101575.66;5105280;28;20035;-69
2021/06/04 01:30:53;;;;;;;4.55;3.17;;;;;;;15.15;45.19;101570.44;5105437;28;20038;-68
2021/06/04 01:33:24;;;;;;;7.07;2.60;;;;;;;15.02;45.65;101574.88;5103729;28;20024;-70
2021/06/04 01:35:55;;;;;;;4.78;2.88;;;;;;;15.10;45.56;101573.97;5104983;28;20024;-69
2021/06/04 01:38:28;;;;;;;6.93;3.13;;;;;;;15.07;45.51;101571.38;5105182;28;20020;-69
2021/06/04 01:40:59;;;;;;;6.72;3.75;;;;;;;15.17;45.23;101566.94;5105402;28;20478;-70
2021/06/04 01:43:30;;;;;;;4.95;2.47;;;;;;;15.08;45.53;101565.25;5105068;28;20108;-68
2021/06/04 01:46:03;;;;;;;6.57;3.15;;;;;;;14.99;45.99;101568.84;5104963;28;20161;-68
2021/06/04 01:48:33;;;;;;;4.72;3.20;;;;;;;14.99;46.10;101570.56;5103540;28;20113;-69
2021/06/04 01:51:03;;;;;;;6.78;2.92;;;;;;;14.97;46.25;101569.69;5103385;28;20020;-69
2021/06/04 01:53:36;;;;;;;4.70;2.78;;;;;;;15.02;46.52;101573.16;5104953;28;20019;-69
2021/06/04 01:56:10;;;;;;;4.63;3.10;;;;;;;14.91;46.77;101570.63;5104847;28;20028;-70
2021/06/04 01:58:53;;;;;;;6.25;3.17;;;;;;;15.01;46.75;101578.41;5104764;28;20049;-70
2021/06/04 02:01:47;;;;;;;4.15;3.42;;;;;;;14.78;47.35;101567.22;5104547;28;20084;-69
2021/06/04 02:04:19;;;;;;;6.60;3.50;;;;;;;14.76;47.64;101574.19;5101546;28;20032;-69
2021/06/04 02:06:45;;;;;;;5.30;3.05;;;;;;;14.66;47.99;101582.97;5104208;28;20028;-69
2021/06/04 02:09:14;;;;;;;4.65;3.05;;;;;;;14.67;48.18;101582.09;5104741;28;20034;-69
2021/06/04 02:11:40;;;;;;;5.95;3.28;;;;;;;14.61;48.39;101576.06;5104595;28;20269;-69
2021/06/04 02:14:11;;;;;;;4.80;3.13;;;;;;;14.56;48.60;101569.97;5104445;28;20043;-69
2021/06/04 02:16:48;;;;;;;9.73;3.45;;;;;;;14.61;48.67;101583.91;5104106;28;20063;-69
2021/06/04 02:19:16;;;;;;;4.97;3.20;;;;;;;14.60;48.83;101582.13;5104563;28;20069;-70
2021/06/04 02:22:24;;;;;;;7.20;3.30;;;;;;;14.70;48.83;101576.84;5103360;28;20028;-69
2021/06/04 02:25:00;;;;;;;5.30;2.65;;;;;;;14.55;48.90;101578.72;5094146;28;20539;-70
2021/06/04 02:27:29;;;;;;;4.78;3.45;;;;;;;14.47;49.35;101576.13;5104281;28;20023;-69
2021/06/04 02:30:04;;;;;;;5.95;2.78;;;;;;;14.52;49.26;101578.69;5104421;28;20055;-70
2021/06/04 02:32:43;;;;;;;4.95;3.30;;;;;;;14.42;49.54;101579.66;5104223;28;20024;-70
2021/06/04 02:35:25;;;;;;;6.78;3.63;;;;;;;14.40;49.57;101576.16;5104297;28;20072;-69
2021/06/04 02:37:55;;;;;;;7.80;3.70;;;;;;;14.33;49.73;101576.19;5103672;28;20036;-69
2021/06/04 02:40:30;;;;;;;9.10;3.70;;;;;;;14.51;49.64;101579.59;5102587;28;20028;-69
2021/06/04 02:43:01;;;;;;;4.03;2.90;;;;;;;14.46;49.66;101587.44;5103950;28;20112;-69
2021/06/04 02:45:26;;;;;;;5.40;2.65;;;;;;;14.50;49.81;101588.31;5104050;28;20020;-69
2021/06/04 02:47:57;;;;;;;4.95;3.60;;;;;;;14.51;50.03;101587.44;5103934;28;20016;-69
2021/06/04 02:50:37;;;;;;;4.18;3.22;;;;;;;14.43;50.37;101584.84;5103890;28;20418;-69
2021/06/04 02:53:21;;;;;;;4.30;2.83;;;;;;;14.53;50.21;101592.63;5103545;28;20016;-69
2021/06/04 02:56:18;;;;;;;4.28;3.40;;;;;;;14.50;50.35;101588.31;5103738;28;20036;-69
2021/06/04 02:58:52;;;;;;;7.10;3.60;;;;;;;14.54;50.34;101590.03;5102494;28;20020;-70
2021/06/04 03:01:19;;;;;;;8.38;3.72;;;;;;;14.51;50.65;101587.44;5103733;28;20445;-69
2021/06/04 03:03:48;;;;;;;4.43;3.38;;;;;;;14.45;51.04;101583.13;5103700;28;20035;-68
2021/06/04 03:06:16;;;;;;;3.88;2.75;;;;;;;14.57;51.05;101590.00;5103519;28;20032;-68
2021/06/04 03:08:44;;;;;;;5.28;3.45;;;;;;;14.58;51.13;101596.97;5103629;28;20024;-69
2021/06/04 03:11:11;;;;;;;6.97;3.85;;;;;;;14.75;50.73;101598.59;5102344;28;20016;-69
2021/06/04 03:13:36;;;;;;;4.75;3.70;;;;;;;14.94;50.48;101598.50;5103558;28;20028;-69
2021/06/04 03:16:13;;;;;;;4.93;3.83;;;;;;;15.28;49.50;101590.38;5103560;28;20084;-67
2021/06/04 03:18:42;;;;;;;4.63;3.22;;;;;;;15.20;49.76;101594.81;5103392;28;20115;-69
2021/06/04 03:21:26;;;;;;;4.03;3.17;;;;;;;15.39;49.20;101589.41;5103193;28;20026;-69
2021/06/04 03:23:51;;;;;;;3.97;3.08;;;;;;;15.45;48.96;101595.44;5103377;28;20115;-70
2021/06/04 03:26:21;;;;;;;5.32;3.63;;;;;;;15.61;48.58;101596.16;5103489;28;20028;-70
2021/06/04 03:28:49;;;;;;;9.25;3.97;;;;;;;15.68;48.42;101596.09;5103299;28;20027;-70
2021/06/04 03:31:17;;;;;;;6.10;3.10;;;;;;;15.76;48.05;101588.16;5103463;28;20016;-69
2021/06/04 03:33:42;;;;;;;5.35;3.30;;;;;;;15.81;48.19;101591.59;5105116;28;20024;-69
2021/06/04 03:36:15;;;;;;;6.00;3.50;;;;;;;15.91;48.07;101590.59;5105842;28;20028;-70
2021/06/04 03:38:40;;;;;;;6.68;3.70;;;;;;;16.10;47.39;101593.88;5107297;28;20043;-70
2021/06/04 03:41:06;;;;;;;4.85;3.30;;;;;;;16.16;47.17;101581.59;5107356;28;20024;-70
2021/06/04 03:43:32;;;;;;;3.22;2.28;;;;;;;16.29;46.94;101577.94;5107225;28;20031;-68
2021/06/04 03:45:58;;;;;;;3.83;3.17;;;;;;;16.41;46.31;101582.13;5107322;28;20028;-69
2021/06/04 03:48:29;;;;;;;7.50;3.35;;;;;;;16.53;46.18;101580.22;5107260;28;20159;-70
2021/06/04 03:50:58;;;;;;;5.03;3.60;;;;;;;16.69;45.80;101581.72;5107066;28;20039;-70
2021/06/04 03:53:25;;;;;;;7.32;3.70;;;;;;;16.84;45.84;101582.38;5107247;28;20020;-70
2021/06/04 03:55:52;;;;;;;6.90;3.55;;;;;;;17.08;44.79;101578.53;5107351;28;20038;-70
2021/06/04 03:58:18;;;;;;;5.65;3.38;;;;;;;17.17;44.67;101577.47;5107207;28;20020;-71
2021/06/04 04:00:51;;;;;;;5.20;3.67;;;;;;;17.32;43.86;101581.59;5107216;28;20425;-70
2021/06/04 04:03:20;;;;;;;6.78;3.53;;;;;;;17.41;44.08;101585.81;5106890;28;20100;-65
2021/06/04 04:05:46;;;;;;;7.15;3.55;;;;;;;17.71;43.00;101575.66;5106832;28;20020;-73
2021/06/04 04:08:15;;;;;;;5.22;3.55;;;;;;;17.83;42.91;101577.16;5107003;28;20035;-72
2021/06/04 04:10:42;;;;;;;6.30;3.53;;;;;;;17.98;42.63;101575.09;5106702;28;20020;-68
2021/06/04 04:13:07;;;;;;;4.10;2.65;;;;;;;18.22;41.97;101575.50;5106517;28;20020;-68
2021/06/04 04:15:33;;;;;;;5.72;3.42;;;;;;;18.50;41.99;101574.03;5106757;28;20085;-68
2021/06/04 04:18:03;;;;;;;6.57;3.78;;;;;;;18.92;41.47;101573.00;5106456;28;20040;-69
2021/06/04 04:20:35;;;;;;;4.30;2.83;;;;;;;19.22;39.63;101580.22;5106657;28;20137;-68
2021/06/04 04:23:01;;;;;;;5.72;3.28;;;;;;;19.13;39.62;101570.78;5106212;28;20028;-71
2021/06/04 04:25:30;;;;;;;5.47;3.33;;;;;;;19.20;39.61;101575.84;5105187;28;20070;-71
2021/06/04 04:27:56;;;;;;;5.00;2.80;;;;;;;19.35;39.20;101567.56;5106422;28;20027;-71
2021/06/04 04:30:22;;;;;;;5.95;3.30;;;;;;;19.44;39.14;101564.72;5106823;28;20028;-72
2021/06/04 04:32:49;;;;;;;4.88;2.63;;;;;;;19.59;38.48;101554.63;5106686;28;20038;-69
2021/06/04 04:35:19;;;;;;;5.20;3.20;;;;;;;19.49;38.73;101569.84;5106742;28;20103;-71
2021/06/04 04:37:45;;;;;;;3.88;2.90;;;;;;;19.65;38.43;101563.22;5104791;28;20044;-70
2021/06/04 04:40:12;;;;;;;3.40;2.50;;;;;;;19.73;37.67;101544.56;5106707;28;20027;-70
2021/06/04 04:42:38;;;;;;;3.88;3.03;;;;;;;19.61;38.04;101555.47;5106222;28;20437;-71
2021/06/04 04:45:08;;;;;;;7.03;3.50;;;;;;;19.74;38.03;101554.22;5104610;28;20028;-71
2021/06/04 04:47:34;;;;;;;10.15;3.08;;;;;;;19.92;37.96;101549.31;5106657;28;20016;-71
2021/06/04 04:49:59;;;;;;;6.28;3.35;;;;;;;20.26;37.49;101553.59;5106529;28;20080;-72
2021/06/04 04:52:25;;;;;;;4.35;2.95;;;;;;;20.43;36.93;101558.31;5104783;28;20032;-72
2021/06/04 04:54:54;;;;;;;4.55;3.08;;;;;;;20.73;36.34;101554.75;5106934;28;20052;-73
2021/06/04 04:57:21;;;;;;;4.80;3.00;;;;;;;20.92;35.73;101547.13;5107154;28;20031;-76
2021/06/04 04:59:46;;;;;;;3.75;3.03;;;;;;;21.16;35.60;101556.88;5106799;28;20531;-73
2021/06/04 05:02:15;;;;;;;5.32;3.17;;;;;;;21.37;34.47;101555.28;5106163;28;20100;-72
2021/06/04 05:04:41;;;;;;;5.95;2.67;;;;;;;21.37;34.92;101549.97;5106226;28;20027;-71
2021/06/04 05:07:06;;;;;;;6.20;2.92;;;;;;;21.65;34.10;101548.09;5104504;28;20020;-71
2021/06/04 05:09:32;;;;;;;3.55;2.90;;;;;;;21.84;34.38;101547.47;5104871;28;20080;-71
2021/06/04 05:11:58;;;;;;;6.45;2.75;;;;;;;22.22;34.17;101544.25;5106299;28;20047;-71
2021/06/04 05:14:23;;;;;;;8.02;3.03;;;;;;;22.77;32.29;101549.09;5104527;28;20468;-72
2021/06/04 05:16:49;;;;;;;3.95;3.05;;;;;;;22.65;32.59;101549.59;5105801;28;20040;-70
2021/06/04 05:19:14;;;;;;;5.15;2.90;;;;;;;22.50;32.65;101548.41;5104353;28;20028;-72
2021/06/04 05:21:40;;;;;;;6.18;2.72;;;;;;;22.51;32.62;101550.13;5105477;28;20111;-73
2021/06/04 05:24:06;;;;;;;5.15;2.90;;;;;;;22.51;32.58;101551.00;5105523;28;20028;-73
2021/06/04 05:26:33;;;;;;;7.22;2.95;;;;;;;22.61;32.64;101542.69;5105262;28;20028;-73
2021/06/04 05:28:58;;;;;;;4.10;2.70;;;;;;;22.74;32.59;101546.56;5105860;28;20024;-73
2021/06/04 05:31:24;;;;;;;3.55;2.65;;;;;;;22.97;32.00;101543.88;5105817;28;20016;-73
2021/06/04 05:33:52;;;;;;;2.72;2.45;;;;;;;23.37;32.11;101539.47;5105465;28;20087;-73
2021/06/04 05:36:26;;;;;;;3.95;3.20;;;;;;;23.85;31.25;101535.63;5105502;28;20020;-73
2021/06/04 05:38:52;;;;;;;6.43;3.13;;;;;;;24.49;30.65;101533.44;5105482;28;20035;-73
2021/06/04 05:41:19;;;;;;;6.80;2.75;;;;;;;25.01;29.70;101538.88;5105558;28;20028;-72
2021/06/04 05:43:45;;;;;;;3.78;2.55;;;;;;;25.36;28.61;101543.28;5105130;28;20024;-72
2021/06/04 05:46:14;;;;;;;4.88;2.75;;;;;;;25.18;28.64;101539.78;5105595;28;20016;-71
2021/06/04 05:48:39;;;;;;;4.72;2.85;;;;;;;25.24;27.99;101544.81;5105504;28;20028;-74
2021/06/04 05:51:10;;;;;;;6.78;3.33;;;;;;;25.18;28.50;101534.47;5104797;28;20024;-72
2021/06/04 05:53:37;;;;;;;5.63;2.60;;;;;;;25.16;27.85;101531.91;5104860;28;20074;-73
2021/06/04 05:56:05;;;;;;;3.65;2.70;;;;;;;25.04;27.89;101538.72;5103239;28;20035;-68
2021/06/04 05:58:31;;;;;;;4.00;2.47;;;;;;;25.05;28.62;101537.78;5103669;28;20028;-71
2021/06/04 06:00:59;;;;;;;6.28;2.90;;;;;;;25.37;27.67;101544.97;5104649;28;20028;-66
2021/06/04 06:03:29;;;;;;;3.97;2.40;;;;;;;25.60;27.89;101535.78;5104594;28;20030;-68
2021/06/04 06:05:56;;;;;;;3.42;2.50;;;;;;;26.06;27.43;101544.84;5104419;28;20083;-64
2021/06/04 06:08:21;;;;;;;3.53;2.75;;;;;;;25.98;26.43;101542.63;5104475;28;20023;-72
2021/06/04 06:10:47;;;;;;;5.82;3.03;;;;;;;25.70;26.98;101545.94;5103352;28;20091;-63
2021/06/04 06:13:13;;;;;;;5.53;3.03;;;;;;;25.45;27.16;101547.22;5104763;28;20103;-67
2021/06/04 06:15:39;;;;;;;5.40;2.95;;;;;;;25.19;27.05;101537.03;5104785;28;20020;-65
2021/06/04 06:18:06;;;;;;;7.18;2.88;;;;;;;24.85;28.24;101544.09;5104538;28;20476;-62
2021/06/04 06:20:34;;;;;;;3.35;2.88;;;;;;;24.94;27.71;101545.44;5104301;28;20031;-62
2021/06/04 06:23:00;;;;;;;4.45;2.60;;;;;;;24.71;27.25;101548.28;5104216;28;20028;-62
2021/06/04 06:25:31;;;;;;;4.03;2.60;;;;;;;24.46;27.98;101549.53;5104424;28;20456;-62
2021/06/04 06:27:58;;;;;;;4.07;2.70;;;;;;;24.14;28.47;101550.13;5104334;28;20084;-62
2021/06/04 06:30:26;;;;;;;3.97;2.80;;;;;;;24.02;28.80;101562.19;5104211;28;20020;-62
2021/06/04 06:32:51;;;;;;;5.97;2.95;;;;;;;23.87;29.04;101555.81;5104249;28;20028;-62
2021/06/04 06:35:21;;;;;;;5.25;3.28;;;;;;;23.94;29.34;101551.09;5104310;28;20020;-63
2021/06/04 06:37:47;;;;;;;5.15;2.80;;;;;;;24.19;28.33;101541.97;5104079;28;20518;-66
2021/06/04 06:40:13;;;;;;;4.88;2.78;;;;;;;24.07;28.82;101553.16;5104211;28;20091;-64
2021/06/04 06:42:39;;;;;;;5.85;2.80;;;;;;;23.85;28.83;101564.78;5104318;28;20070;-65
2021/06/04 06:45:08;;;;;;;9.38;3.30;;;;;;;23.67;29.40;101554.09;5104103;28;20024;-65
2021/06/04 06:47:34;;;;;;;5.05;3.10;;;;;;;23.83;29.16;101561.34;5104363;28;20020;-66
2021/06/04 06:50:00;;;;;;;4.38;2.92;;;;;;;23.57;29.04;101560.72;5103892;28;20031;-66
2021/06/04 06:52:25;;;;;;;3.67;2.50;;;;;;;23.39;29.19;101568.56;5103426;28;20034;-67
2021/06/04 06:54:51;;;;;;;4.25;2.85;;;;;;;23.36;29.27;101544.81;5104093;28;20079;-67
2021/06/04 06:57:16;;;;;;;5.03;2.58;;;;;;;23.52;28.77;101559.16;5104086;28;20107;-68
2021/06/04 06:59:41;;;;;;;7.85;2.80;;;;;;;23.44;29.09;101548.03;5103982;28;20028;-68
2021/06/04 07:02:10;;;;;;;6.40;2.67;;;;;;;23.63;29.17;101555.16;5104105;28;20094;-68
2021/06/04 07:04:37;;;;;;;7.82;3.03;;;;;;;23.93;28.99;101551.16;5103820;28;20031;-66
2021/06/04 07:07:04;;;;;;;4.90;2.60;;;;;;;24.30;28.41;101546.75;5103865;28;20023;-67
2021/06/04 07:09:30;;;;;;;3.47;2.45;;;;;;;24.54;27.30;101554.47;5103651;28;20040;-67
2021/06/04 07:11:55;;;;;;;4.78;2.20;;;;;;;24.42;27.78;101542.66;5103920;28;20024;-67
2021/06/04 07:14:28;;;;;;;5.20;3.00;;;;;;;24.64;27.51;101549.56;5103608;28;20343;-68
2021/06/04 07:16:54;;;;;;;3.03;2.45;;;;;;;24.92;27.30;101553.47;5103472;28;20319;-67
2021/06/04 07:19:20;;;;;;;3.78;2.40;;;;;;;25.10;26.29;101550.81;5102467;28;20055;-67
2021/06/04 07:21:46;;;;;;;2.92;2.22;;;;;;;25.10;26.91;101542.84;5103881;28;20059;-67
2021/06/04 07:24:15;;;;;;;3.42;2.30;;;;;;;25.31;25.81;101543.53;5103917;28;20024;-67
2021/06/04 07:26:46;;;;;;;2.75;2.00;;;;;;;25.18;24.05;101540.66;5103661;28;20034;-68
2021/06/04 07:29:12;;;;;;;4.18;2.05;;;;;;;24.81;24.63;101542.53;5103840;28;20028;-68
2021/06/04 07:31:38;;;;;;;4.05;2.20;;;;;;;24.79;24.55;101545.28;5102318;28;20020;-67
2021/06/04 07:34:05;;;;;;;4.50;2.65;;;;;;;24.82;24.34;101542.47;5103577;28;20016;-66
2021/06/04 07:36:36;;;;;;;3.50;2.30;;;;;;;24.58;24.74;101542.78;5103510;28;20071;-67
2021/06/04 07:39:04;;;;;;;4.18;2.47;;;;;;;24.70;24.01;101541.28;5103641;28;20024;-62
2021/06/04 07:41:30;;;;;;;2.65;1.98;;;;;;;24.59;24.29;101531.19;5103360;28;20111;-63
2021/06/04 07:43:55;;;;;;;5.60;2.45;;;;;;;24.22;24.97;101533.88;5103291;28;20066;-63
2021/06/04 07:46:23;;;;;;;8.68;2.75;;;;;;;24.11;25.29;101534.38;5103333;28;20061;-65
2021/06/04 07:48:49;;;;;;;5.45;2.33;;;;;;;24.08;25.28;101545.13;5103804;28;20020;-66
2021/06/04 07:51:19;;;;;;;3.85;2.50;;;;;;;24.24;25.13;101536.44;5103550;28;20152;-68
2021/06/04 07:53:45;;;;;;;5.93;2.78;;;;;;;24.20;25.75;101537.53;5103135;28;20023;-69
2021/06/04 07:56:14;;;;;;;2.58;1.70;;;;;;;24.47;24.19;101537.97;5103352;28;20032;-71
2021/06/04 07:58:40;;;;;;;9.10;2.80;;;;;;;24.27;24.36;101533.66;5103364;28;20020;-70
2021/06/04 08:01:06;;;;;;;6.68;2.28;;;;;;;24.11;24.87;101531.72;5103578;28;20028;-69
2021/06/04 08:03:34;;;;;;;4.07;2.15;;;;;;;24.21;24.66;101533.94;5101799;28;20035;-70
2021/06/04 08:06:03;;;;;;;3.85;2.13;;;;;;;24.56;23.48;101531.34;5103161;28;20012;-69
2021/06/04 08:08:29;;;;;;;3.60;1.67;;;;;;;24.46;23.92;101538.91;5103373;28;20020;-69
2021/06/04 08:10:56;;;;;;;4.20;2.00;;;;;;;24.49;23.68;101530.81;5103285;28;20042;-69
2021/06/04 08:13:23;;;;;;;3.55;1.85;;;;;;;24.82;23.40;101530.97;5103080;28;20030;-69
2021/06/04 08:15:56;;;;;;;3.60;2.00;;;;;;;25.23;23.37;101530.66;5103240;28;20469;-69
2021/06/04 08:18:24;;;;;;;7.25;2.38;;;;;;;25.52;22.75;101542.44;5102911;28;20032;-69
2021/06/04 08:20:50;;;;;;;2.58;1.88;;;;;;;25.82;22.43;101536.41;5104987;28;20119;-68
2021/06/04 08:23:20;;;;;;;4.47;1.88;;;;;;;26.07;21.71;101532.41;5106559;28;20035;-68
2021/06/04 08:25:48;;;;;;;6.22;1.80;;;;;;;26.13;20.89;101525.88;5106939;28;20465;-68
2021/06/04 08:28:14;;;;;;;4.32;2.40;;;;;;;26.17;21.16;101538.91;5106688;28;20020;-69
2021/06/04 08:30:40;;;;;;;3.38;1.80;;;;;;;26.14;21.25;101527.56;5106710;28;20028;-67
2021/06/04 08:33:09;;;;;;;4.43;2.45;;;;;;;26.37;21.32;101528.97;5106650;28;20024;-67
2021/06/04 08:35:36;;;;;;;3.40;2.17;;;;;;;26.48;20.87;101518.53;5106726;28;20020;-68
2021/06/04 08:38:02;;;;;;;4.10;2.03;;;;;;;26.27;21.16;101522.41;5106281;28;20020;-67
2021/06/04 08:40:34;;;;;;;5.95;2.08;;;;;;;26.55;21.54;101526.16;5106454;28;20020;-67
2021/06/04 08:43:21;;;;;;;;;;;;;;;26.81;20.97;101532.59;5106557;28;20112;-67
2021/06/04 08:46:11;;;;;;;3.65;2.20;;;;;;;26.43;21.48;101519.75;5106498;28;19947;-66
2021/06/04 08:48:46;;;;;;;2.45;1.85;;;;;;;26.83;21.71;101521.84;5106323;28;20031;-68
2021/06/04 08:51:20;;;;;;;4.80;2.20;;;;;;;26.90;21.25;101517.84;5106151;28;20081;-67
2021/06/04 08:53:58;;;;;;;4.55;1.90;;;;;;;27.14;20.50;101517.34;5106136;28;20032;-67
2021/06/04 08:56:31;;;;;;;2.80;2.08;;;;;;;27.47;20.70;101520.69;5106256;28;20035;-66
2021/06/04 08:59:00;;;;;;;3.80;2.13;;;;;;;27.89;20.47;101514.53;5106057;28;20025;-66
2021/06/04 09:01:40;;;;;;;6.25;2.15;;;;;;;27.93;18.83;101508.03;5106533;28;20028;-67
2021/06/04 09:04:25;;;;;;;4.10;1.85;;;;;;;27.50;19.07;101514.28;5105735;28;20276;-66
2021/06/04 09:07:01;;;;;;;2.67;2.00;;;;;;;27.28;19.25;101518.31;5105629;28;20051;-65
2021/06/04 09:09:38;;;;;;;4.43;2.25;;;;;;;26.88;19.80;101513.59;5105933;28;20020;-73
2021/06/04 09:12:18;;;;;;;4.63;2.20;;;;;;;26.62;20.83;101522.19;5105915;28;20381;-63
2021/06/04 09:14:44;;;;;;;3.40;2.13;;;;;;;26.98;20.78;101515.59;5105924;28;20115;-62
2021/06/04 09:17:40;;;;;;;3.30;2.08;;;;;;;27.62;19.97;101510.00;5105779;28;20047;-70
2021/06/04 09:20:42;;;;;;;2.85;2.08;;;;;;;27.88;19.23;101511.00;5105573;28;20030;-70
2021/06/04 09:23:13;;;;;;;4.72;2.40;;;;;;;27.52;19.67;101509.72;5105033;28;20034;-70
2021/06/04 09:25:39;;;;;;;4.13;2.20;;;;;;;27.62;19.75;101515.34;5105811;28;20030;-70
2021/06/04 09:28:11;;;;;;;3.42;2.00;;;;;;;27.64;19.53;101510.72;5104225;28;20017;-69
2021/06/04 09:30:40;;;;;;;5.15;2.08;;;;;;;27.34;19.58;101512.59;5103960;28;20035;-70
2021/06/04 09:33:11;;;;;;;2.92;2.00;;;;;;;27.25;20.82;101505.19;5105569;28;20028;-69
2021/06/04 09:35:58;;;;;;;5.43;2.65;;;;;;;28.37;20.07;101511.41;5105535;28;20028;-70
2021/06/04 09:38:33;;;;;;;3.97;2.13;;;;;;;29.44;18.41;101515.78;5086049;28;20036;-70
2021/06/04 09:41:14;;;;;;;4.28;2.60;;;;;;;29.40;18.24;101503.56;5105349;28;20519;-70
2021/06/04 09:43:40;;;;;;;2.83;2.30;;;;;;;29.27;18.50;101506.25;5102704;28;20085;-70
2021/06/04 09:46:08;;;;;;;3.33;2.63;;;;;;;28.90;18.61;101497.16;5103330;28;20031;-70
2021/06/04 09:48:52;;;;;;;3.60;2.47;;;;;;;28.73;18.38;101502.81;5102723;28;20107;-70
2021/06/04 09:51:32;;;;;;;3.92;2.65;;;;;;;28.17;18.61;101497.56;5102611;28;20016;-69
2021/06/04 09:54:28;;;;;;;6.68;2.03;;;;;;;27.79;19.44;101500.94;5102547;28;20080;-70
2021/06/04 09:57:18;;;;;;;3.55;2.00;;;;;;;27.80;19.46;101502.63;5102427;28;20051;-70
2021/06/04 09:59:45;;;;;;;4.93;2.20;;;;;;;28.08;19.14;101500.84;5105134;28;20020;-69
2021/06/04 10:02:35;;;;;;;7.22;2.35;;;;;;;28.30;19.43;101494.06;5103527;28;20432;-70
2021/06/04 10:05:12;;;;;;;3.17;2.30;;;;;;;28.87;18.97;101496.56;5103560;28;20026;-70
2021/06/04 10:07:37;;;;;;;5.60;2.63;;;;;;;29.00;18.65;101502.75;5104710;28;20103;-69
2021/06/04 10:10:13;;;;;;;4.00;2.40;;;;;;;28.67;18.91;101502.31;5105012;28;20103;-69
2021/06/04 10:12:45;;;;;;;4.05;2.50;;;;;;;28.30;19.91;101489.59;5104490;28;20023;-69
2021/06/04 10:15:37;;;;;;;4.05;2.60;;;;;;;28.57;19.15;101487.84;5104745;28;20024;-70
2021/06/04 10:18:33;;;;;;;6.13;2.25;;;;;;;29.07;19.22;101487.16;5102674;28;20051;-71
2021/06/04 10:21:25;;;;;;;5.95;2.67;;;;;;;29.25;18.31;101494.84;5103314;28;20020;-70
2021/06/04 10:23:53;;;;;;;5.95;2.25;;;;;;;28.90;18.47;101483.81;5104585;28;20024;-70
2021/06/04 10:26:32;;;;;;;4.07;2.20;;;;;;;28.80;19.35;101486.25;5104420;28;20062;-69
2021/06/04 10:29:04;;;;;;;5.70;2.10;;;;;;;29.12;19.65;101485.03;5104747;28;20012;-70
2021/06/04 10:31:35;;;;;;;;;;;;;;;29.52;19.86;101493.81;5104721;28;20016;-71
2021/06/04 10:34:22;;;;;;;4.05;2.35;;;;;;;30.20;18.70;101479.13;5104288;28;19937;-73
2021/06/04 10:36:54;;;;;;;3.67;2.08;;;;;;;30.57;17.95;101481.69;5104096;28;20024;-71
2021/06/04 10:39:31;;;;;;;4.22;2.50;;;;;;;30.60;17.87;101492.16;5104432;28;20055;-71
2021/06/04 10:42:35;;;;;;;3.25;2.53;;;;;;;29.93;17.81;101481.06;5103940;28;20020;-71
2021/06/04 10:45:49;;;;;;;4.13;2.47;;;;;;;29.03;19.12;101477.63;5020608;28;20042;-71
2021/06/04 10:48:27;;;;;;;3.45;2.17;;;;;;;29.07;19.46;101476.47;5004428;28;20034;-71
2021/06/04 10:51:30;;;;;;;3.58;2.33;;;;;;;29.89;18.39;101479.59;5021442;28;20030;-71
2021/06/04 10:54:17;;;;;;;3.90;2.33;;;;;;;29.45;17.89;101485.38;5020912;28;20069;-70
2021/06/04 10:56:48;;;;;;;6.60;2.53;;;;;;;28.91;18.84;101476.66;5021099;28;20042;-71
2021/06/04 10:59:17;;;;;;;;;;;;;;;28.41;19.53;101474.69;5021723;28;20040;-71
2021/06/04 11:01:54;;;;;;;5.15;2.85;;;;;;;27.63;20.68;101469.03;5020984;28;19916;-71
2021/06/04 11:04:37;;;;;;;4.45;2.58;;;;;;;27.52;20.84;101467.06;5020969;28;20029;-71
2021/06/04 11:07:09;;;;;;;7.30;2.75;;;;;;;27.54;21.12;101470.50;5021179;28;20033;-65
2021/06/04 11:09:53;;;;;;;4.63;2.78;;;;;;;27.45;21.20;101462.13;5021515;28;20069;-73
2021/06/04 11:12:49;;;;;;;5.28;2.70;;;;;;;27.20;21.53;101476.16;5020635;28;20033;-72
2021/06/04 11:15:59;;;;;;;5.25;3.28;;;;;;;26.45;21.88;101469.94;5020751;28;20033;-72
2021/06/04 11:18:35;;;;;;;4.85;2.75;;;;;;;25.71;22.82;101470.53;5012121;28;20049;-72
2021/06/04 11:21:03;;;;;;;6.07;3.08;;;;;;;25.35;23.41;101464.50;5047229;28;20042;-73
2021/06/04 11:23:57;;;;;;;5.50;2.72;;;;;;;25.04;24.15;101468.78;5103764;28;20055;-73
2021/06/04 11:26:31;;;;;;;4.20;3.05;;;;;;;24.72;23.82;101470.38;5103791;28;20039;-73
2021/06/04 11:29:03;;;;;;;5.43;2.63;;;;;;;24.36;24.83;101452.75;5103896;28;20103;-72
2021/06/04 11:31:48;;;;;;;4.90;2.88;;;;;;;24.29;25.44;101461.94;5104071;28;20483;-73
2021/06/04 11:34:42;;;;;;;6.88;3.08;;;;;;;24.34;25.04;101454.63;5103787;28;20020;-72
2021/06/04 11:37:13;;;;;;;6.53;2.45;;;;;;;24.24;24.89;101441.81;5103637;28;20013;-73
2021/06/04 11:39:43;;;;;;;4.55;2.70;;;;;;;24.32;24.76;101451.16;5103967;28;20090;-72
2021/06/04 11:42:14;;;;;;;4.65;3.13;;;;;;;24.41;25.11;101450.69;5103896;28;20032;-73
2021/06/04 11:44:53;;;;;;;4.80;2.90;;;;;;;24.36;25.56;101448.28;5103944;28;20443;-72
2021/06/04 11:47:18;;;;;;;3.80;2.70;;;;;;;24.53;25.03;101440.41;5103800;28;20358;-72
2021/06/04 11:49:53;;;;;;;4.22;3.13;;;;;;;24.76;24.99;101433.91;5103836;28;20092;-71